Latest Weather Observations for Wyndham Airport

IDW60801

Issued at 10:03 pm WST Sunday 24 September 2017 (issued every 30 minutes, with the page automatically refreshed every 10 minutes)

About weather observations | Map of weather stations | Latest weather observations for WA | Other Formats
Station Details ID: 001006 Name: WYNDHAM AERO Lat: -15.51 Lon: 128.15 Height: 3.8 m
Data from the previous 72 hours. | See also: Recent months at Wyndham Airport
Date/Time
WST
Temp
°C
App
Temp
°C
Dew
Point
°C
Rel
Hum
%
Delta-T
°C
Wind Press
QNH
hPa
Press
MSL
hPa
Rain since
9am
mm
Dir  Spd
km/h
Gust
km/h
Spd
kts
Gust
kts
24/10:00pm 27.8 27.6 14.8 45 7.9 E 9 11 5 6 1010.1 1010.1 0.0
24/09:30pm 29.8 29.2 13.5 36 9.7 SE 9 13 5 7 1010.2 1010.2 0.0
24/09:00pm 30.3 29.3 12.2 33 10.6 N 9 17 5 9 1010.1 1010.1 0.0
24/08:30pm 31.2 28.6 12.1 31 11.2 N 17 24 9 13 1009.9 1009.9 0.0
24/08:00pm 31.4 28.3 12.2 30 11.3 N 20 28 11 15 1009.5 1009.5 0.0
24/07:30pm 31.1 28.6 13.4 34 10.6 NNW 19 32 10 17 1009.0 1009.0 0.0
24/07:00pm 31.2 27.0 13.5 34 10.6 N 28 39 15 21 1008.4 1008.4 0.0
24/06:30pm 31.3 27.3 15.3 38 9.9 N 30 46 16 25 1007.8 1007.8 0.0
24/06:00pm 31.3 27.5 15.7 39 9.7 N 30 41 16 22 1007.3 1007.3 0.0
24/05:30pm 31.7 26.6 14.8 36 10.4 N 35 48 19 26 1006.9 1006.9 0.0
24/05:14pm 32.3 28.1 15.7 36 10.3 N 32 50 17 27 1006.7 1006.7 0.0
24/05:00pm 32.9 29.7 16.3 37 10.5 N 28 35 15 19 1006.5 1006.5 0.0
24/04:30pm 34.6 31.3 16.0 33 11.7 N 28 35 15 19 1006.1 1006.1 0.0
24/04:00pm 36.2 33.2 15.9 30 12.9 N 26 32 14 17 1006.0 1006.0 0.0
24/03:30pm 37.8 34.9 15.0 26 14.3 N 24 35 13 19 1005.9 1005.9 0.0
24/03:00pm 39.5 37.1 9.9 17 17.5 NW 13 20 7 11 1006.0 1006.0 0.0
24/02:30pm 39.0 37.0 8.6 16 17.5 W 9 19 5 10 1006.3 1006.3 0.0
24/02:00pm 39.3 37.2 9.8 17 17.4 W 11 15 6 8 1006.8 1006.8 0.0
24/01:30pm 38.8 37.0 11.0 19 16.6 NNW 11 17 6 9 1007.2 1007.2 0.0
24/01:00pm 38.2 37.3 12.7 21 15.6 WNW 9 17 5 9 1007.6 1007.6 0.0
24/12:30pm 37.6 36.9 14.2 25 14.5 W 11 19 6 10 1008.2 1008.2 0.0
24/12:00pm 36.8 37.0 14.7 26 13.8 S 7 13 4 7 1008.7 1008.7 0.0
24/11:30am 36.1 36.1 15.2 28 13.1 WSW 9 19 5 10 1009.4 1009.4 0.0
24/11:00am 36.0 35.4 15.7 30 12.8 NW 13 20 7 11 1010.1 1010.1 0.0
24/10:30am 34.1 34.6 16.5 35 11.2 NW 9 13 5 7 1010.7 1010.7 0.0
24/10:00am 33.4 33.7 17.1 37 10.4 NW 11 17 6 9 1011.2 1011.2 0.0
24/09:30am 33.3 34.2 18.3 41 9.7 W 11 20 6 11 1011.6 1011.6 0.0
24/09:00am 31.5 32.0 19.2 48 8.0 WNW 15 20 8 11 1011.9 1011.9 0.0
24/08:30am 31.0 30.8 19.4 50 7.6 WNW 19 26 10 14 1012.1 1012.1 0.0
24/08:00am 30.7 30.7 19.7 52 7.2 W 19 24 10 13 1012.2 1012.2 0.0
24/07:30am 29.4 30.0 20.3 58 6.0 W 17 20 9 11 1012.1 1012.1 0.0
24/07:00am 28.5 28.8 20.5 62 5.3 WNW 19 24 10 13 1012.0 1012.0 0.0
24/06:30am 27.5 27.7 20.6 66 4.5 WNW 20 24 11 13 1011.6 1011.6 0.0
24/06:00am 25.8 27.2 18.7 65 4.5 NW 9 13 5 7 1011.3 1011.3 0.0
24/05:30am 24.1 25.3 17.4 66 4.2 WNW 7 9 4 5 1011.1 1011.1 0.0
24/05:00am 23.4 23.1 15.5 61 4.7 W 11 13 6 7 1010.7 1010.7 0.0
24/04:30am 23.6 24.5 16.1 62 4.6 W 6 9 3 5 1010.6 1010.6 0.0
24/04:00am 23.3 23.5 14.8 59 5.0 WSW 7 9 4 5 1010.5 1010.5 0.0
24/03:30am 23.1 22.6 13.8 55 5.4 WNW 9 11 5 6 1010.2 1010.2 0.0
24/03:00am 23.4 24.1 15.5 61 4.8 NW 6 7 3 4 1010.1 1010.1 0.0
24/02:30am 24.0 24.9 16.5 63 4.6 WNW 7 9 4 5 1010.2 1010.2 0.0
24/02:00am 24.3 24.5 15.8 59 5.2 WSW 9 13 5 7 1010.3 1010.3 0.0
24/01:30am 24.4 25.2 17.4 65 4.4 N 9 9 5 5 1010.4 1010.4 0.0
24/01:00am 23.7 25.6 16.7 65 4.3 SSE 2 6 1 3 1010.5 1010.5 0.0
24/12:30am 24.4 25.5 16.6 61 4.8 SE 6 7 3 4 1010.7 1010.7 0.0
24/12:00am 25.3 27.1 18.2 64 4.5 SE 6 9 3 5 1010.9 1010.9 0.0
 
Date/Time
WST
Temp
°C
App
Temp
°C
Dew
Point
°C
Rel
Hum
%
Delta-T
°C
Wind Press
QNH
hPa
Press
MSL
hPa
Rain since
9am
mm
Dir  Spd
km/h
Gust
km/h
Spd
kts
Gust
kts
23/11:30pm 25.4 27.6 16.5 58 5.5 CALM 0 0 0 0 1010.9 1010.9 0.0
23/11:00pm 26.1 27.3 16.9 57 5.7 E 6 9 3 5 1011.1 1011.1 0.0
23/10:30pm 27.3 28.0 18.0 56 5.9 ESE 11 15 6 8 1011.2 1011.2 0.0
23/10:00pm 27.3 28.1 17.2 54 6.3 E 9 13 5 7 1011.3 1011.3 0.0
23/09:30pm 28.5 29.6 17.1 50 7.2 ESE 7 13 4 7 1011.4 1011.4 0.0
23/09:00pm 28.9 30.0 16.5 47 7.7 SSW 6 7 3 4 1011.4 1011.4 0.0
23/08:30pm 30.3 29.9 15.2 40 9.3 N 11 20 6 11 1011.1 1011.1 0.0
23/08:00pm 29.4 30.0 16.9 47 7.9 NE 9 17 5 9 1011.1 1011.1 0.0
23/07:30pm 30.1 30.4 16.9 45 8.3 N 11 17 6 9 1010.5 1010.5 0.0
23/07:00pm 30.2 29.0 17.6 46 8.0 N 20 33 11 18 1009.9 1009.9 0.0
23/06:30pm 30.4 27.4 16.8 44 8.6 N 28 41 15 22 1009.2 1009.2 0.0
23/06:00pm 30.8 27.1 16.0 40 9.2 N 30 43 16 23 1008.7 1008.7 0.0
23/05:30pm 31.5 27.3 14.6 36 10.3 N 30 43 16 23 1008.2 1008.2 0.0
23/05:00pm 32.3 27.6 14.9 35 10.7 N 33 46 18 25 1007.8 1007.8 0.0
23/04:30pm 33.4 29.1 15.4 34 11.2 N 32 46 17 25 1007.8 1007.8 0.0
23/04:00pm 35.4 32.0 15.7 31 12.4 N 28 35 15 19 1007.7 1007.7 0.0
23/03:30pm 38.0 34.8 15.2 26 14.4 N 26 35 14 19 1007.5 1007.5 0.0
23/03:00pm 38.5 35.6 13.0 22 15.7 N 20 28 11 15 1007.4 1007.4 0.0
23/02:30pm 38.7 36.6 12.5 21 15.9 NNE 15 28 8 15 1007.6 1007.6 0.0
23/02:00pm 39.6 36.9 11.7 19 16.9 NW 17 26 9 14 1007.8 1007.8 0.0
23/01:30pm 39.4 37.2 10.7 18 17.1 WSW 13 19 7 10 1008.2 1008.2 0.0
23/01:00pm 38.8 37.0 11.0 19 16.6 WNW 11 20 6 11 1008.7 1008.7 0.0
23/12:30pm 38.6 36.6 11.6 20 16.2 SSW 13 20 7 11 1009.3 1009.3 0.0
23/12:00pm 38.1 36.5 12.7 22 15.5 WSW 13 19 7 10 1009.8 1009.8 0.0
23/11:30am 37.8 37.3 13.8 24 14.8 WNW 9 19 5 10 1010.4 1010.4 0.0
23/11:00am 36.4 36.9 15.5 29 13.2 NW 7 15 4 8 1011.0 1011.0 0.0
23/10:30am 35.5 35.9 16.3 32 12.2 NW 9 15 5 8 1011.6 1011.6 0.0
23/10:00am 34.5 35.1 16.8 34 11.3 W 9 17 5 9 1012.1 1012.1 0.0
23/09:30am 33.1 33.4 16.9 38 10.3 WSW 11 17 6 9 1012.7 1012.7 0.0
23/09:00am 32.8 33.3 17.4 39 9.8 WSW 11 22 6 12 1013.1 1013.1 0.0
23/08:30am 31.9 31.8 17.8 43 9.0 W 15 24 8 13 1013.3 1013.3 0.0
23/08:00am 31.0 31.0 18.0 45 8.3 W 15 20 8 11 1013.4 1013.4 0.0
23/07:30am 30.4 30.2 17.5 46 8.2 W 15 20 8 11 1013.5 1013.5 0.0
23/07:00am 29.7 29.8 17.5 48 7.7 W 13 15 7 8 1013.4 1013.4 0.0
23/06:30am 28.9 29.2 17.1 49 7.4 W 11 13 6 7 1013.1 1013.1 0.0
23/06:00am 27.8 27.9 16.4 50 7.1 WNW 11 17 6 9 1012.7 1012.7 0.0
23/05:30am 27.5 26.5 16.5 51 6.8 WNW 17 20 9 11 1012.1 1012.1 0.0
23/05:00am 27.3 26.7 16.6 52 6.6 NW 15 17 8 9 1011.8 1011.8 0.0
23/04:30am 27.4 27.2 16.7 52 6.7 NW 13 17 7 9 1011.6 1011.6 0.0
23/04:00am 26.9 27.0 16.5 53 6.4 NW 11 13 6 7 1011.4 1011.4 0.0
23/03:30am 26.9 27.1 16.8 54 6.3 NW 11 13 6 7 1011.1 1011.1 0.0
23/03:00am 25.8 25.7 16.9 58 5.5 NW 13 13 7 7 1010.8 1010.8 0.0
23/02:30am 25.7 25.5 15.7 54 6.1 WNW 11 15 6 8 1010.6 1010.6 0.0
23/02:00am 26.7 26.3 17.2 56 5.9 WSW 15 15 8 8 1010.7 1010.7 0.0
23/01:30am 25.6 27.1 16.7 58 5.5 WSW 4 7 2 4 1010.9 1010.9 0.0
23/01:00am 25.8 25.6 16.6 56 5.7 SW 13 13 7 7 1010.9 1010.9 0.0
23/12:30am 25.4 25.7 16.0 56 5.7 W 9 13 5 7 1011.1 1011.1 0.0
23/12:00am 25.2 25.8 15.2 54 6.0 NW 6 7 3 4 1011.2 1011.2 0.0
 
Date/Time
WST
Temp
°C
App
Temp
°C
Dew
Point
°C
Rel
Hum
%
Delta-T
°C
Wind Press
QNH
hPa
Press
MSL
hPa
Rain since
9am
mm
Dir  Spd
km/h
Gust
km/h
Spd
kts
Gust
kts
22/11:30pm 26.0 27.1 16.5 55 5.9 NNW 6 7 3 4 1011.3 1011.3 0.0
22/11:00pm 27.1 27.8 17.0 54 6.3 SW 9 11 5 6 1011.5 1011.5 0.0
22/10:30pm 28.2 28.8 16.8 50 7.1 SW 9 13 5 7 1011.7 1011.7 0.0
22/10:00pm 29.5 29.4 17.0 47 7.9 W 13 15 7 8 1011.6 1011.6 0.0
22/09:30pm 28.6 29.3 14.4 41 8.6 SW 4 9 2 5 1011.5 1011.5 0.0
22/09:00pm 30.8 30.8 15.2 38 9.6 WNW 9 15 5 8 1011.5 1011.5 0.0
22/08:30pm 30.2 30.2 15.1 40 9.3 WSW 9 13 5 7 1011.5 1011.5 0.0
22/08:00pm 30.6 30.3 13.4 35 10.3 WSW 7 9 4 5 1011.4 1011.4 0.0
22/07:30pm 30.7 30.7 15.2 39 9.5 WNW 9 15 5 8 1011.1 1011.1 0.0
22/07:00pm 31.4 31.7 15.0 37 10.1 S 7 13 4 7 1010.9 1010.9 0.0
22/06:30pm 31.8 28.8 14.9 36 10.4 NNE 24 32 13 17 1010.4 1010.4 0.0
22/06:00pm 32.0 31.3 14.2 34 10.8 NW 11 13 6 7 1010.2 1010.2 0.0
22/05:30pm 33.0 33.2 14.6 33 11.3 WNW 7 9 4 5 1009.9 1009.9 0.0
22/05:00pm 34.0 32.4 14.0 30 12.2 NNW 15 19 8 10 1009.6 1009.6 0.0
22/04:30pm 35.1 32.2 13.9 28 13.0 N 22 30 12 16 1009.4 1009.4 0.0
22/04:00pm 35.9 33.0 14.0 27 13.5 N 22 32 12 17 1009.1 1009.1 0.0
22/03:30pm 37.0 33.2 11.1 21 15.4 N 22 32 12 17 1009.1 1009.1 0.0
22/03:00pm 36.9 33.7 13.0 24 14.6 N 22 32 12 17 1009.1 1009.1 0.0
22/02:30pm 37.2 34.0 11.9 22 15.2 NNE 20 32 11 17 1009.3 1009.3 0.0
22/02:00pm 37.0 34.3 11.8 22 15.1 NE 17 24 9 13 1009.6 1009.6 0.0
22/01:30pm 37.2 34.0 11.2 21 15.4 NNE 19 30 10 16 1009.7 1009.7 0.0
22/01:00pm 37.2 35.2 12.6 23 14.9 N 15 26 8 14 1009.9 1009.9 0.0
22/12:30pm 37.0 34.3 11.8 22 15.1 N 17 26 9 14 1010.4 1010.4 0.0
22/12:00pm 36.3 33.8 11.2 22 14.9 N 15 26 8 14 1010.9 1010.9 0.0
22/11:30am 36.4 34.0 12.6 24 14.4 NNE 17 26 9 14 1011.4 1011.4 0.0
22/11:00am 35.5 33.2 11.8 24 14.1 NNE 15 24 8 13 1011.9 1011.9 0.0
22/10:30am 35.6 33.5 12.5 24 13.9 N 15 24 8 13 1012.4 1012.4 0.0
22/10:00am 35.2 34.9 13.4 27 13.3 NW 7 15 4 8 1012.9 1012.9 0.0
22/09:30am 33.7 32.8 12.7 28 12.6 WNW 9 17 5 9 1013.3 1013.3 0.0
22/09:00am 33.0 33.0 14.1 32 11.5 NNW 7 11 4 6 1013.4 1013.4 0.0
22/08:30am 31.2 31.3 14.4 36 10.2 WSW 7 11 4 6 1013.4 1013.4 0.0
22/08:00am 30.1 30.7 15.8 42 8.9 W 7 9 4 5 1013.6 1013.6 0.0
22/07:30am 29.2 30.5 17.1 48 7.6 ESE 6 9 3 5 1013.5 1013.5 0.0
22/07:00am 27.1 28.0 17.6 56 6.0 ESE 9 13 5 7 1013.2 1013.2 0.0
22/06:30am 25.2 26.3 17.9 64 4.6 E 9 11 5 6 1012.9 1012.9 0.0
22/06:00am 23.2 24.6 17.7 71 3.4 NE 7 9 4 5 1012.6 1012.6 0.0
22/05:30am 21.7 22.0 16.0 70 3.4 E 9 13 5 7 1012.1 1012.1 0.0
22/05:00am 22.2 21.9 16.5 70 3.5 E 13 15 7 8 1011.7 1011.7 0.0
22/04:30am 22.2 21.7 16.0 68 3.7 E 13 17 7 9 1011.4 1011.4 0.0
22/04:00am 22.4 21.7 16.4 69 3.6 E 15 20 8 11 1011.3 1011.3 0.0
22/03:30am 23.0 22.5 17.0 69 3.7 E 15 17 8 9 1010.9 1010.9 0.0
22/03:00am 23.2 22.3 15.8 63 4.5 E 15 20 8 11 1010.5 1010.5 0.0
22/02:30am 21.9 22.1 13.0 57 5.1 E 4 9 2 5 1010.2 1010.2 0.0
22/02:00am 22.7 22.0 14.3 59 4.9 N 11 15 6 8 1010.3 1010.3 0.0
22/01:30am 22.3 22.1 13.6 58 5.0 SW 7 11 4 6 1009.9 1009.9 0.0
22/01:00am 21.9 22.4 14.0 61 4.6 SSW 4 9 2 5 1010.0 1010.0 0.0
22/12:30am 22.8 24.4 14.9 61 4.7 CALM 0 0 0 0 1009.7 1009.7 0.0
22/12:00am 22.9 23.4 15.0 61 4.7 E 6 9 3 5 1009.8 1009.8 0.0
 
Date/Time
WST
Temp
°C
App
Temp
°C
Dew
Point
°C
Rel
Hum
%
Delta-T
°C
Wind Press
QNH
hPa
Press
MSL
hPa
Rain since
9am
mm
Dir  Spd
km/h
Gust
km/h
Spd
kts
Gust
kts
21/11:30pm 23.8 24.5 16.1 62 4.7 ESE 7 11 4 6 1010.0 1010.0 0.0
21/11:00pm 23.9 23.9 16.2 62 4.7 E 11 17 6 9 1010.1 1010.1 0.0
21/10:30pm 24.9 24.5 16.3 59 5.3 E 13 17 7 9 1010.4 1010.4 0.0

Other Formats:

Comma delimited format used in spreadsheet applications
http://www.bom.gov.au/fwo/IDW60801/IDW60801.95214.axf

JavaScript Object Notation format (JSON) in row-major order
http://www.bom.gov.au/fwo/IDW60801/IDW60801.95214.json